sensor_id;sensor_type;location;lat;lon;timestamp;pressure;altitude;pressure_sealevel;temperature
57468;BMP280;43311;51.196;7.518;2024-02-21T00:02:04;97586.16;;;6.49
57468;BMP280;43311;51.196;7.518;2024-02-21T00:04:29;97591.00;;;6.51
57468;BMP280;43311;51.196;7.518;2024-02-21T00:06:54;97601.53;;;6.58
57468;BMP280;43311;51.196;7.518;2024-02-21T00:09:20;97591.75;;;6.51
57468;BMP280;43311;51.196;7.518;2024-02-21T00:11:45;97590.59;;;6.49
57468;BMP280;43311;51.196;7.518;2024-02-21T00:14:11;97574.94;;;6.45
57468;BMP280;43311;51.196;7.518;2024-02-21T00:16:36;97577.94;;;6.47
57468;BMP280;43311;51.196;7.518;2024-02-21T00:19:01;97586.53;;;6.51
57468;BMP280;43311;51.196;7.518;2024-02-21T00:21:27;97575.75;;;6.49
57468;BMP280;43311;51.196;7.518;2024-02-21T00:23:52;97566.75;;;6.43
57468;BMP280;43311;51.196;7.518;2024-02-21T00:26:17;97573.50;;;6.51
57468;BMP280;43311;51.196;7.518;2024-02-21T00:28:43;97558.88;;;6.40
57468;BMP280;43311;51.196;7.518;2024-02-21T00:31:08;97551.75;;;6.37
57468;BMP280;43311;51.196;7.518;2024-02-21T00:33:34;97570.53;;;6.49
57468;BMP280;43311;51.196;7.518;2024-02-21T00:35:59;97539.97;;;6.46
57468;BMP280;43311;51.196;7.518;2024-02-21T00:38:24;97524.19;;;6.32
57468;BMP280;43311;51.196;7.518;2024-02-21T00:40:50;97555.59;;;6.46
57468;BMP280;43311;51.196;7.518;2024-02-21T00:43:15;97550.78;;;6.48
57468;BMP280;43311;51.196;7.518;2024-02-21T00:45:40;97552.28;;;6.49
57468;BMP280;43311;51.196;7.518;2024-02-21T00:48:06;97551.47;;;6.45
57468;BMP280;43311;51.196;7.518;2024-02-21T00:50:32;97550.78;;;6.48
57468;BMP280;43311;51.196;7.518;2024-02-21T00:52:57;97537.34;;;6.46
57468;BMP280;43311;51.196;7.518;2024-02-21T00:55:23;97523.84;;;6.34
57468;BMP280;43311;51.196;7.518;2024-02-21T00:57:48;97495.88;;;6.31
57468;BMP280;43311;51.196;7.518;2024-02-21T01:00:13;97496.31;;;6.36
57468;BMP280;43311;51.196;7.518;2024-02-21T01:02:39;97519.84;;;6.43
57468;BMP280;43311;51.196;7.518;2024-02-21T01:05:04;97518.63;;;6.34
57468;BMP280;43311;51.196;7.518;2024-02-21T01:07:30;97537.69;;;6.41
57468;BMP280;43311;51.196;7.518;2024-02-21T01:09:55;97525.91;;;6.54
57468;BMP280;43311;51.196;7.518;2024-02-21T01:12:21;97522.84;;;6.45
57468;BMP280;43311;51.196;7.518;2024-02-21T01:14:46;97525.78;;;6.44
57468;BMP280;43311;51.196;7.518;2024-02-21T01:17:12;97525.13;;;6.50
57468;BMP280;43311;51.196;7.518;2024-02-21T01:19:38;97504.56;;;6.42
57468;BMP280;43311;51.196;7.518;2024-02-21T01:22:03;97500.44;;;6.37
57468;BMP280;43311;51.196;7.518;2024-02-21T01:24:29;97504.28;;;6.50
57468;BMP280;43311;51.196;7.518;2024-02-21T01:26:54;97504.28;;;6.50
57468;BMP280;43311;51.196;7.518;2024-02-21T01:29:20;97489.38;;;6.47
57468;BMP280;43311;51.196;7.518;2024-02-21T01:31:45;97484.84;;;6.41
57468;BMP280;43311;51.196;7.518;2024-02-21T01:34:10;97477.47;;;6.50
57468;BMP280;43311;51.196;7.518;2024-02-21T01:36:36;97476.38;;;6.51
57468;BMP280;43311;51.196;7.518;2024-02-21T01:39:01;97477.50;;;6.53
57468;BMP280;43311;51.196;7.518;2024-02-21T01:41:29;97483.91;;;6.59
57468;BMP280;43311;51.196;7.518;2024-02-21T01:43:55;97480.53;;;6.59
57468;BMP280;43311;51.196;7.518;2024-02-21T01:46:20;97463.31;;;6.47
57468;BMP280;43311;51.196;7.518;2024-02-21T01:48:46;97442.81;;;6.42
57468;BMP280;43311;51.196;7.518;2024-02-21T01:51:11;97462.59;;;6.50
57468;BMP280;43311;51.196;7.518;2024-02-21T01:53:38;97463.38;;;6.54
57468;BMP280;43311;51.196;7.518;2024-02-21T01:56:06;97466.38;;;6.56
57468;BMP280;43311;51.196;7.518;2024-02-21T01:58:35;97456.69;;;6.53
57468;BMP280;43311;51.196;7.518;2024-02-21T02:01:02;97443.25;;;6.51
57468;BMP280;43311;51.196;7.518;2024-02-21T02:03:27;97441.13;;;6.60
57468;BMP280;43311;51.196;7.518;2024-02-21T02:05:53;97432.81;;;6.51
57468;BMP280;43311;51.196;7.518;2024-02-21T02:08:19;97429.88;;;6.56
57468;BMP280;43311;51.196;7.518;2024-02-21T02:10:45;97446.00;;;6.65
57468;BMP280;43311;51.196;7.518;2024-02-21T02:13:11;97431.81;;;6.63
57468;BMP280;43311;51.196;7.518;2024-02-21T02:15:44;97441.47;;;6.62
57468;BMP280;43311;51.196;7.518;2024-02-21T02:18:10;97437.44;;;6.68
57468;BMP280;43311;51.196;7.518;2024-02-21T02:20:36;97425.47;;;6.60
57468;BMP280;43311;51.196;7.518;2024-02-21T02:23:07;97433.28;;;6.60
57468;BMP280;43311;51.196;7.518;2024-02-21T02:25:35;97382.88;;;6.42
57468;BMP280;43311;51.196;7.518;2024-02-21T02:28:00;97385.50;;;6.42
57468;BMP280;43311;51.196;7.518;2024-02-21T02:30:26;97412.13;;;6.65
57468;BMP280;43311;51.196;7.518;2024-02-21T02:32:51;97390.75;;;6.46
57468;BMP280;43311;51.196;7.518;2024-02-21T02:35:16;97388.91;;;6.50
57468;BMP280;43311;51.196;7.518;2024-02-21T02:37:48;97400.53;;;6.59
57468;BMP280;43311;51.196;7.518;2024-02-21T02:40:14;97385.09;;;6.40
57468;BMP280;43311;51.196;7.518;2024-02-21T02:42:39;97386.69;;;6.55
57468;BMP280;43311;51.196;7.518;2024-02-21T02:45:05;97377.78;;;6.56
57468;BMP280;43311;51.196;7.518;2024-02-21T02:47:31;97379.66;;;6.56
57468;BMP280;43311;51.196;7.518;2024-02-21T02:49:56;97383.78;;;6.60
57468;BMP280;43311;51.196;7.518;2024-02-21T02:52:21;97372.94;;;6.55
57468;BMP280;43311;51.196;7.518;2024-02-21T02:54:47;97362.91;;;6.57
57468;BMP280;43311;51.196;7.518;2024-02-21T02:57:17;97363.56;;;6.43
57468;BMP280;43311;51.196;7.518;2024-02-21T02:59:47;97358.34;;;6.43
57468;BMP280;43311;51.196;7.518;2024-02-21T03:02:13;97365.53;;;6.57
57468;BMP280;43311;51.196;7.518;2024-02-21T03:04:39;97365.50;;;6.53
57468;BMP280;43311;51.196;7.518;2024-02-21T03:07:05;97359.84;;;6.48
57468;BMP280;43311;51.196;7.518;2024-02-21T03:09:31;97368.09;;;6.53
57468;BMP280;43311;51.196;7.518;2024-02-21T03:11:56;97349.41;;;6.44
57468;BMP280;43311;51.196;7.518;2024-02-21T03:14:28;97359.09;;;6.44
57468;BMP280;43311;51.196;7.518;2024-02-21T03:16:53;97364.72;;;6.49
57468;BMP280;43311;51.196;7.518;2024-02-21T03:19:18;97357.31;;;6.55
57468;BMP280;43311;51.196;7.518;2024-02-21T03:21:44;97353.91;;;6.47
57468;BMP280;43311;51.196;7.518;2024-02-21T03:24:09;97333.69;;;6.30
57468;BMP280;43311;51.196;7.518;2024-02-21T03:26:34;97327.41;;;6.35
57468;BMP280;43311;51.196;7.518;2024-02-21T03:29:00;97324.78;;;6.38
57468;BMP280;43311;51.196;7.518;2024-02-21T03:31:25;97336.78;;;6.46
57468;BMP280;43311;51.196;7.518;2024-02-21T03:33:50;97330.88;;;6.56
57468;BMP280;43311;51.196;7.518;2024-02-21T03:36:16;97333.47;;;6.49
57468;BMP280;43311;51.196;7.518;2024-02-21T03:38:41;97337.25;;;6.62
57468;BMP280;43311;51.196;7.518;2024-02-21T03:41:06;97284.28;;;6.41
57468;BMP280;43311;51.196;7.518;2024-02-21T03:43:32;97294.69;;;6.44
57468;BMP280;43311;51.196;7.518;2024-02-21T03:45:57;97287.66;;;6.45
57468;BMP280;43311;51.196;7.518;2024-02-21T03:48:23;97273.72;;;6.23
57468;BMP280;43311;51.196;7.518;2024-02-21T03:50:48;97273.03;;;6.33
57468;BMP280;43311;51.196;7.518;2024-02-21T03:53:13;97296.53;;;6.40
57468;BMP280;43311;51.196;7.518;2024-02-21T03:55:39;97280.88;;;6.37
57468;BMP280;43311;51.196;7.518;2024-02-21T03:58:04;97287.19;;;6.32
57468;BMP280;43311;51.196;7.518;2024-02-21T04:00:29;97293.50;;;6.31
57468;BMP280;43311;51.196;7.518;2024-02-21T04:02:55;97306.25;;;6.43
57468;BMP280;43311;51.196;7.518;2024-02-21T04:05:21;97266.56;;;6.13
57468;BMP280;43311;51.196;7.518;2024-02-21T04:07:46;97266.66;;;6.24
57468;BMP280;43311;51.196;7.518;2024-02-21T04:10:12;97290.56;;;6.36
57468;BMP280;43311;51.196;7.518;2024-02-21T04:12:37;97272.94;;;6.19
57468;BMP280;43311;51.196;7.518;2024-02-21T04:15:04;97283.78;;;6.28
57468;BMP280;43311;51.196;7.518;2024-02-21T04:17:29;97296.56;;;6.44
57468;BMP280;43311;51.196;7.518;2024-02-21T04:20:03;97293.53;;;6.38
57468;BMP280;43311;51.196;7.518;2024-02-21T04:22:31;97296.56;;;6.44
57468;BMP280;43311;51.196;7.518;2024-02-21T04:24:57;97250.63;;;6.18
57468;BMP280;43311;51.196;7.518;2024-02-21T04:27:22;97307.41;;;6.49
57468;BMP280;43311;51.196;7.518;2024-02-21T04:29:48;97302.81;;;6.36
57468;BMP280;43311;51.196;7.518;2024-02-21T04:32:13;97324.81;;;6.42
57468;BMP280;43311;51.196;7.518;2024-02-21T04:34:41;97308.41;;;6.34
57468;BMP280;43311;51.196;7.518;2024-02-21T04:37:06;97283.75;;;6.25
57468;BMP280;43311;51.196;7.518;2024-02-21T04:39:31;97303.13;;;6.27
57468;BMP280;43311;51.196;7.518;2024-02-21T04:41:56;97285.94;;;6.16
57468;BMP280;43311;51.196;7.518;2024-02-21T04:44:22;97311.78;;;6.38
57468;BMP280;43311;51.196;7.518;2024-02-21T04:46:47;97286.69;;;6.16
57468;BMP280;43311;51.196;7.518;2024-02-21T04:49:12;97287.06;;;6.18
57468;BMP280;43311;51.196;7.518;2024-02-21T04:51:40;97308.41;;;6.34
57468;BMP280;43311;51.196;7.518;2024-02-21T04:54:05;97289.75;;;6.25
57468;BMP280;43311;51.196;7.518;2024-02-21T04:56:31;97304.78;;;6.46
57468;BMP280;43311;51.196;7.518;2024-02-21T04:58:56;97274.06;;;6.18
57468;BMP280;43311;51.196;7.518;2024-02-21T05:01:21;97277.06;;;6.20
57468;BMP280;43311;51.196;7.518;2024-02-21T05:03:47;97293.06;;;6.22
57468;BMP280;43311;51.196;7.518;2024-02-21T05:06:12;97316.94;;;6.31
57468;BMP280;43311;51.196;7.518;2024-02-21T05:08:37;97320.69;;;6.34
57468;BMP280;43311;51.196;7.518;2024-02-21T05:11:03;97292.28;;;6.18
57468;BMP280;43311;51.196;7.518;2024-02-21T05:13:28;97318.84;;;6.38
57468;BMP280;43311;51.196;7.518;2024-02-21T05:15:53;97283.78;;;6.28
57468;BMP280;43311;51.196;7.518;2024-02-21T05:18:19;97290.88;;;6.28
57468;BMP280;43311;51.196;7.518;2024-02-21T05:20:45;97306.19;;;6.36
57468;BMP280;43311;51.196;7.518;2024-02-21T05:23:11;97315.53;;;6.44
57468;BMP280;43311;51.196;7.518;2024-02-21T05:25:36;97297.63;;;6.39
57468;BMP280;43311;51.196;7.518;2024-02-21T05:28:01;97293.94;;;6.40
57468;BMP280;43311;51.196;7.518;2024-02-21T05:30:28;97281.59;;;6.30
57468;BMP280;43311;51.196;7.518;2024-02-21T05:32:53;97293.47;;;6.28
57468;BMP280;43311;51.196;7.518;2024-02-21T05:35:19;97295.78;;;6.36
57468;BMP280;43311;51.196;7.518;2024-02-21T05:37:44;97274.47;;;6.24
57468;BMP280;43311;51.196;7.518;2024-02-21T05:40:12;97292.41;;;6.36
57468;BMP280;43311;51.196;7.518;2024-02-21T05:42:38;97293.59;;;6.45
57468;BMP280;43311;51.196;7.518;2024-02-21T05:45:04;97289.81;;;6.39
57468;BMP280;43311;51.196;7.518;2024-02-21T05:47:29;97281.63;;;6.34
57468;BMP280;43311;51.196;7.518;2024-02-21T05:49:54;97300.66;;;6.41
57468;BMP280;43311;51.196;7.518;2024-02-21T05:52:20;97291.28;;;6.33
57468;BMP280;43311;51.196;7.518;2024-02-21T05:54:45;97281.66;;;6.44
57468;BMP280;43311;51.196;7.518;2024-02-21T05:57:11;97289.53;;;6.48
57468;BMP280;43311;51.196;7.518;2024-02-21T05:59:38;97284.25;;;6.37
57468;BMP280;43311;51.196;7.518;2024-02-21T06:02:05;97256.19;;;6.17
57468;BMP280;43311;51.196;7.518;2024-02-21T06:04:30;97279.75;;;6.34
57468;BMP280;43311;51.196;7.518;2024-02-21T06:06:56;97272.69;;;6.35
57468;BMP280;43311;51.196;7.518;2024-02-21T06:09:21;97264.88;;;6.31
57468;BMP280;43311;51.196;7.518;2024-02-21T06:11:46;97283.91;;;6.42
57468;BMP280;43311;51.196;7.518;2024-02-21T06:14:14;97284.97;;;6.34
57468;BMP280;43311;51.196;7.518;2024-02-21T06:16:39;97280.88;;;6.37
57468;BMP280;43311;51.196;7.518;2024-02-21T06:19:04;97278.97;;;6.30
57468;BMP280;43311;51.196;7.518;2024-02-21T06:21:30;97271.22;;;6.37
57468;BMP280;43311;51.196;7.518;2024-02-21T06:23:55;97273.84;;;6.37
57468;BMP280;43311;51.196;7.518;2024-02-21T06:26:20;97264.84;;;6.28
57468;BMP280;43311;51.196;7.518;2024-02-21T06:28:46;97267.47;;;6.31
57468;BMP280;43311;51.196;7.518;2024-02-21T06:31:12;97235.44;;;6.27
57468;BMP280;43311;51.196;7.518;2024-02-21T06:33:37;97238.41;;;6.29
57468;BMP280;43311;51.196;7.518;2024-02-21T06:36:03;97231.66;;;6.21
57468;BMP280;43311;51.196;7.518;2024-02-21T06:38:28;97243.66;;;6.33
57468;BMP280;43311;51.196;7.518;2024-02-21T06:40:53;97231.03;;;6.35
57468;BMP280;43311;51.196;7.518;2024-02-21T06:43:20;97237.72;;;6.32
57468;BMP280;43311;51.196;7.518;2024-02-21T06:45:45;97219.06;;;6.27
57468;BMP280;43311;51.196;7.518;2024-02-21T06:48:15;97212.38;;;6.29
57468;BMP280;43311;51.196;7.518;2024-02-21T06:50:41;97221.38;;;6.39
57468;BMP280;43311;51.196;7.518;2024-02-21T06:53:06;97222.50;;;6.41
57468;BMP280;43311;51.196;7.518;2024-02-21T06:55:31;97215.03;;;6.36
57468;BMP280;43311;51.196;7.518;2024-02-21T06:57:57;97191.91;;;6.28
57468;BMP280;43311;51.196;7.518;2024-02-21T07:00:22;97200.16;;;6.40
57468;BMP280;43311;51.196;7.518;2024-02-21T07:02:48;97211.34;;;6.44
57468;BMP280;43311;51.196;7.518;2024-02-21T07:05:13;97209.53;;;6.48
57468;BMP280;43311;51.196;7.518;2024-02-21T07:07:39;97203.53;;;6.44
57468;BMP280;43311;51.196;7.518;2024-02-21T07:10:06;97209.88;;;6.47
57468;BMP280;43311;51.196;7.518;2024-02-21T07:12:32;97208.06;;;6.51
57468;BMP280;43311;51.196;7.518;2024-02-21T07:14:57;97215.50;;;6.52
57468;BMP280;43311;51.196;7.518;2024-02-21T07:17:22;97211.81;;;6.57
57468;BMP280;43311;51.196;7.518;2024-02-21T07:19:48;97189.81;;;6.51
57468;BMP280;43311;51.196;7.518;2024-02-21T07:22:13;97208.41;;;6.53
57468;BMP280;43311;51.196;7.518;2024-02-21T07:24:38;97208.09;;;6.65
57468;BMP280;43311;51.196;7.518;2024-02-21T07:27:04;97214.88;;;6.76
57468;BMP280;43311;51.196;7.518;2024-02-21T07:29:32;97217.47;;;6.73
57468;BMP280;43311;51.196;7.518;2024-02-21T07:31:58;97196.91;;;6.57
57468;BMP280;43311;51.196;7.518;2024-02-21T07:34:24;97198.47;;;6.69
57468;BMP280;43311;51.196;7.518;2024-02-21T07:36:49;97205.94;;;6.74
57468;BMP280;43311;51.196;7.518;2024-02-21T07:39:15;97192.53;;;6.75
57468;BMP280;43311;51.196;7.518;2024-02-21T07:41:41;97199.97;;;6.77
57468;BMP280;43311;51.196;7.518;2024-02-21T07:44:08;97190.69;;;6.79
57468;BMP280;43311;51.196;7.518;2024-02-21T07:46:34;97189.59;;;6.87
57468;BMP280;43311;51.196;7.518;2024-02-21T07:49:00;97195.63;;;7.01
57468;BMP280;43311;51.196;7.518;2024-02-21T07:51:28;97168.00;;;6.83
57468;BMP280;43311;51.196;7.518;2024-02-21T07:53:54;97181.41;;;6.88
57468;BMP280;43311;51.196;7.518;2024-02-21T07:56:19;97189.22;;;6.85
57468;BMP280;43311;51.196;7.518;2024-02-21T07:58:44;97164.56;;;6.65
57468;BMP280;43311;51.196;7.518;2024-02-21T08:01:10;97171.66;;;6.68
57468;BMP280;43311;51.196;7.518;2024-02-21T08:03:35;97169.44;;;6.74
57468;BMP280;43311;51.196;7.518;2024-02-21T08:06:02;97181.41;;;6.85
57468;BMP280;43311;51.196;7.518;2024-02-21T08:08:27;97173.97;;;6.87
57468;BMP280;43311;51.196;7.518;2024-02-21T08:10:53;97164.63;;;6.79
57468;BMP280;43311;51.196;7.518;2024-02-21T08:13:18;97153.81;;;6.74
57468;BMP280;43311;51.196;7.518;2024-02-21T08:15:43;97158.31;;;6.83
57468;BMP280;43311;51.196;7.518;2024-02-21T08:18:09;97160.53;;;6.75
57468;BMP280;43311;51.196;7.518;2024-02-21T08:20:34;97133.31;;;6.69
57468;BMP280;43311;51.196;7.518;2024-02-21T08:23:00;97138.56;;;6.79
57468;BMP280;43311;51.196;7.518;2024-02-21T08:25:25;97142.66;;;6.80
57468;BMP280;43311;51.196;7.518;2024-02-21T08:27:51;97143.81;;;6.93
57468;BMP280;43311;51.196;7.518;2024-02-21T08:30:19;97122.94;;;6.82
57468;BMP280;43311;51.196;7.518;2024-02-21T08:32:45;97139.75;;;6.99
57468;BMP280;43311;51.196;7.518;2024-02-21T08:35:10;97121.06;;;6.79
57468;BMP280;43311;51.196;7.518;2024-02-21T08:37:37;97148.28;;;6.96
57468;BMP280;43311;51.196;7.518;2024-02-21T08:40:02;97135.63;;;6.94
57468;BMP280;43311;51.196;7.518;2024-02-21T08:42:34;97109.94;;;6.93
57468;BMP280;43311;51.196;7.518;2024-02-21T08:45:00;97105.09;;;6.91
57468;BMP280;43311;51.196;7.518;2024-02-21T08:47:25;97074.91;;;6.80
57468;BMP280;43311;51.196;7.518;2024-02-21T08:49:50;97068.19;;;6.79
57468;BMP280;43311;51.196;7.518;2024-02-21T08:52:16;97089.09;;;7.00
57468;BMP280;43311;51.196;7.518;2024-02-21T08:54:41;97080.88;;;6.91
57468;BMP280;43311;51.196;7.518;2024-02-21T08:57:06;97086.06;;;6.84
57468;BMP280;43311;51.196;7.518;2024-02-21T08:59:32;97071.91;;;6.71
57468;BMP280;43311;51.196;7.518;2024-02-21T09:01:58;97078.25;;;6.84
57468;BMP280;43311;51.196;7.518;2024-02-21T09:04:23;97075.66;;;6.84
57468;BMP280;43311;51.196;7.518;2024-02-21T09:06:49;97092.81;;;6.99
57468;BMP280;43311;51.196;7.518;2024-02-21T09:09:14;97079.03;;;7.02
57468;BMP280;43311;51.196;7.518;2024-02-21T09:11:39;97071.97;;;7.06
57468;BMP280;43311;51.196;7.518;2024-02-21T09:14:05;97096.53;;;7.12
57468;BMP280;43311;51.196;7.518;2024-02-21T09:16:31;97080.56;;;7.17
57468;BMP280;43311;51.196;7.518;2024-02-21T09:18:57;97068.59;;;6.95
57468;BMP280;43311;51.196;7.518;2024-02-21T09:21:23;97059.28;;;6.87
57468;BMP280;43311;51.196;7.518;2024-02-21T09:23:48;97065.25;;;6.94
57468;BMP280;43311;51.196;7.518;2024-02-21T09:26:13;97051.06;;;6.78
57468;BMP280;43311;51.196;7.518;2024-02-21T09:28:41;97059.28;;;6.87
57468;BMP280;43311;51.196;7.518;2024-02-21T09:31:07;97060.41;;;6.86
57468;BMP280;43311;51.196;7.518;2024-02-21T09:33:33;97027.97;;;6.73
57468;BMP280;43311;51.196;7.518;2024-02-21T09:35:58;97039.16;;;6.77
57468;BMP280;43311;51.196;7.518;2024-02-21T09:38:24;97034.69;;;6.74
57468;BMP280;43311;51.196;7.518;2024-02-21T09:41:16;97063.38;;;6.88
57468;BMP280;43311;51.196;7.518;2024-02-21T09:43:43;97014.19;;;6.66
57468;BMP280;43311;51.196;7.518;2024-02-21T09:46:17;97041.41;;;6.99
57468;BMP280;43311;51.196;7.518;2024-02-21T09:49:04;96998.94;;;6.68
57468;BMP280;43311;51.196;7.518;2024-02-21T09:51:34;97039.94;;;7.19
57468;BMP280;43311;51.196;7.518;2024-02-21T09:54:02;96998.59;;;6.93
57468;BMP280;43311;51.196;7.518;2024-02-21T09:56:28;97005.66;;;6.93
57468;BMP280;43311;51.196;7.518;2024-02-21T09:58:54;96995.25;;;6.93
57468;BMP280;43311;51.196;7.518;2024-02-21T10:01:19;97006.44;;;7.11
57468;BMP280;43311;51.196;7.518;2024-02-21T10:03:44;97001.19;;;7.04
57468;BMP280;43311;51.196;7.518;2024-02-21T10:06:10;97010.13;;;7.20
57468;BMP280;43311;51.196;7.518;2024-02-21T10:08:35;97026.16;;;7.33
57468;BMP280;43311;51.196;7.518;2024-02-21T10:11:01;97016.09;;;7.31
57468;BMP280;43311;51.196;7.518;2024-02-21T10:13:29;97044.38;;;7.60
57468;BMP280;43311;51.196;7.518;2024-02-21T10:16:07;97020.94;;;7.36
57468;BMP280;43311;51.196;7.518;2024-02-21T10:18:34;97033.59;;;7.38
57468;BMP280;43311;51.196;7.518;2024-02-21T10:21:07;97033.22;;;7.43
57468;BMP280;43311;51.196;7.518;2024-02-21T10:23:48;97009.41;;;7.34
57468;BMP280;43311;51.196;7.518;2024-02-21T10:26:14;97023.91;;;7.42
57468;BMP280;43311;51.196;7.518;2024-02-21T10:28:39;97014.22;;;7.39
57468;BMP280;43311;51.196;7.518;2024-02-21T10:31:10;97038.00;;;7.75
57468;BMP280;43311;51.196;7.518;2024-02-21T10:33:37;97019.34;;;7.91
57468;BMP280;43311;51.196;7.518;2024-02-21T10:36:10;97021.53;;;8.06
57468;BMP280;43311;51.196;7.518;2024-02-21T10:38:37;97000.69;;;7.85
57468;BMP280;43311;51.196;7.518;2024-02-21T10:41:04;96998.41;;;8.01
57468;BMP280;43311;51.196;7.518;2024-02-21T10:43:37;97002.09;;;8.11
57468;BMP280;43311;51.196;7.518;2024-02-21T10:46:04;96989.84;;;7.97
57468;BMP280;43311;51.196;7.518;2024-02-21T10:48:38;97016.25;;;8.27
57468;BMP280;43311;51.196;7.518;2024-02-21T10:51:16;97009.09;;;8.41
57468;BMP280;43311;51.196;7.518;2024-02-21T10:54:11;97010.19;;;8.40
57468;BMP280;43311;51.196;7.518;2024-02-21T10:56:38;96990.50;;;8.25
57468;BMP280;43311;51.196;7.518;2024-02-21T10:59:06;96985.28;;;8.22
57468;BMP280;43311;51.196;7.518;2024-02-21T11:01:31;96974.13;;;8.18
57468;BMP280;43311;51.196;7.518;2024-02-21T11:04:01;96978.63;;;8.07
57468;BMP280;43311;51.196;7.518;2024-02-21T11:06:28;96961.44;;;8.16
57468;BMP280;43311;51.196;7.518;2024-02-21T11:09:07;96966.69;;;8.06
57468;BMP280;43311;51.196;7.518;2024-02-21T11:11:38;96977.84;;;8.10
57468;BMP280;43311;51.196;7.518;2024-02-21T11:14:18;96942.81;;;8.04
57468;BMP280;43311;51.196;7.518;2024-02-21T11:16:44;96976.69;;;8.25
57468;BMP280;43311;51.196;7.518;2024-02-21T11:19:28;96948.00;;;8.11
57468;BMP280;43311;51.196;7.518;2024-02-21T11:21:55;96930.06;;;8.20
57468;BMP280;43311;51.196;7.518;2024-02-21T11:24:29;96954.66;;;8.29
57468;BMP280;43311;51.196;7.518;2024-02-21T11:26:55;96912.94;;;8.12
57468;BMP280;43311;51.196;7.518;2024-02-21T11:29:24;96947.06;;;8.49
57468;BMP280;43311;51.196;7.518;2024-02-21T11:31:51;96920.97;;;8.45
57468;BMP280;43311;51.196;7.518;2024-02-21T11:34:19;96907.88;;;8.49
57468;BMP280;43311;51.196;7.518;2024-02-21T11:36:48;96904.81;;;8.61
57468;BMP280;43311;51.196;7.518;2024-02-21T11:39:25;96873.19;;;8.45
57468;BMP280;43311;51.196;7.518;2024-02-21T11:42:07;96867.97;;;8.45
57468;BMP280;43311;51.196;7.518;2024-02-21T11:44:36;96854.19;;;8.41
57468;BMP280;43311;51.196;7.518;2024-02-21T11:47:09;96859.66;;;8.57
57468;BMP280;43311;51.196;7.518;2024-02-21T11:49:38;96862.56;;;8.66
57468;BMP280;43311;51.196;7.518;2024-02-21T11:52:06;96823.53;;;8.45
57468;BMP280;43311;51.196;7.518;2024-02-21T11:54:33;96839.66;;;8.80
57468;BMP280;43311;51.196;7.518;2024-02-21T11:56:59;96839.59;;;8.87
57468;BMP280;43311;51.196;7.518;2024-02-21T11:59:25;96834.75;;;8.85
57468;BMP280;43311;51.196;7.518;2024-02-21T12:01:50;96795.16;;;8.47
57468;BMP280;43311;51.196;7.518;2024-02-21T12:04:18;96805.03;;;8.29
57468;BMP280;43311;51.196;7.518;2024-02-21T12:06:45;96832.53;;;8.40
57468;BMP280;43311;51.196;7.518;2024-02-21T12:09:14;96801.63;;;8.32
57468;BMP280;43311;51.196;7.518;2024-02-21T12:11:39;96793.66;;;8.49
57468;BMP280;43311;51.196;7.518;2024-02-21T12:14:05;96789.16;;;8.50
57468;BMP280;43311;51.196;7.518;2024-02-21T12:16:31;96802.84;;;8.64
57468;BMP280;43311;51.196;7.518;2024-02-21T12:18:58;96805.81;;;8.66
57468;BMP280;43311;51.196;7.518;2024-02-21T12:21:25;96772.47;;;8.37
57468;BMP280;43311;51.196;7.518;2024-02-21T12:23:51;96772.78;;;8.46
57468;BMP280;43311;51.196;7.518;2024-02-21T12:26:16;96744.94;;;8.29
57468;BMP280;43311;51.196;7.518;2024-02-21T12:28:41;96741.97;;;8.27
57468;BMP280;43311;51.196;7.518;2024-02-21T12:31:07;96731.25;;;8.15
57468;BMP280;43311;51.196;7.518;2024-02-21T12:33:32;96715.28;;;8.02
57468;BMP280;43311;51.196;7.518;2024-02-21T12:35:58;96717.09;;;8.12
57468;BMP280;43311;51.196;7.518;2024-02-21T12:38:23;96727.88;;;8.11
57468;BMP280;43311;51.196;7.518;2024-02-21T12:40:49;96723.38;;;8.21
57468;BMP280;43311;51.196;7.518;2024-02-21T12:43:14;96707.28;;;8.26
57468;BMP280;43311;51.196;7.518;2024-02-21T12:45:39;96706.91;;;8.24
57468;BMP280;43311;51.196;7.518;2024-02-21T12:48:05;96706.06;;;8.34
57468;BMP280;43311;51.196;7.518;2024-02-21T12:50:30;96707.53;;;8.39
57468;BMP280;43311;51.196;7.518;2024-02-21T12:52:57;96683.88;;;8.13
57468;BMP280;43311;51.196;7.518;2024-02-21T12:55:23;96651.88;;;8.02
57468;BMP280;43311;51.196;7.518;2024-02-21T12:57:49;96667.06;;;8.13
57468;BMP280;43311;51.196;7.518;2024-02-21T13:00:14;96616.91;;;7.92
57468;BMP280;43311;51.196;7.518;2024-02-21T13:02:40;96626.34;;;8.23
57468;BMP280;43311;51.196;7.518;2024-02-21T13:05:05;96654.88;;;8.40
57468;BMP280;43311;51.196;7.518;2024-02-21T13:07:32;96636.47;;;8.51
57468;BMP280;43311;51.196;7.518;2024-02-21T13:09:57;96614.00;;;8.57
57468;BMP280;43311;51.196;7.518;2024-02-21T13:12:23;96629.41;;;8.48
57468;BMP280;43311;51.196;7.518;2024-02-21T13:14:51;96614.25;;;8.36
57468;BMP280;43311;51.196;7.518;2024-02-21T13:17:16;96633.47;;;8.52
57468;BMP280;43311;51.196;7.518;2024-02-21T13:19:42;96606.13;;;8.60
57468;BMP280;43311;51.196;7.518;2024-02-21T13:22:07;96567.75;;;8.54
57468;BMP280;43311;51.196;7.518;2024-02-21T13:24:33;96591.34;;;8.77
57468;BMP280;43311;51.196;7.518;2024-02-21T13:26:59;96542.97;;;8.65
57468;BMP280;43311;51.196;7.518;2024-02-21T13:29:24;96515.84;;;8.56
57468;BMP280;43311;51.196;7.518;2024-02-21T13:31:49;96507.81;;;8.70
57468;BMP280;43311;51.196;7.518;2024-02-21T13:34:15;96508.78;;;8.79
57468;BMP280;43311;51.196;7.518;2024-02-21T13:36:42;96516.25;;;8.81
57468;BMP280;43311;51.196;7.518;2024-02-21T13:39:07;96513.78;;;8.70
57468;BMP280;43311;51.196;7.518;2024-02-21T13:41:34;96496.69;;;8.62
57468;BMP280;43311;51.196;7.518;2024-02-21T13:44:00;96490.84;;;8.55
57468;BMP280;43311;51.196;7.518;2024-02-21T13:46:29;96498.94;;;8.64
57468;BMP280;43311;51.196;7.518;2024-02-21T13:49:02;96486.19;;;8.66
57468;BMP280;43311;51.196;7.518;2024-02-21T13:51:30;96475.91;;;8.55
57468;BMP280;43311;51.196;7.518;2024-02-21T13:53:55;96468.16;;;8.48
57468;BMP280;43311;51.196;7.518;2024-02-21T13:56:20;96471.88;;;8.51
57468;BMP280;43311;51.196;7.518;2024-02-21T13:58:45;96457.63;;;8.55
57468;BMP280;43311;51.196;7.518;2024-02-21T14:01:11;96479.16;;;8.63
57468;BMP280;43311;51.196;7.518;2024-02-21T14:03:36;96457.84;;;8.64
57468;BMP280;43311;51.196;7.518;2024-02-21T14:06:01;96466.88;;;8.60
57468;BMP280;43311;51.196;7.518;2024-02-21T14:08:27;96465.56;;;8.48
57468;BMP280;43311;51.196;7.518;2024-02-21T14:10:52;96478.84;;;8.57
57468;BMP280;43311;51.196;7.518;2024-02-21T14:13:18;96464.72;;;8.55
57468;BMP280;43311;51.196;7.518;2024-02-21T14:15:44;96474.16;;;8.72
57468;BMP280;43311;51.196;7.518;2024-02-21T14:18:11;96461.59;;;8.63